Lorelei II — WDC2835 — position and weather

sailwx.info

Track history (hours):
 
Tides and Currents Weather Stations Pressure Air Temp Water Temp Dewpoint Dewpoint Depression Visibility Wind Speed Wind Dir Waves Ship Positions

Lorelei II

Owner: OLSEN, ERIC W, SEATTLE, WA. More information available from US FCC via Universal Licensing System and Coast Guard Vessel Documentation Center.

Last reported at 2018-Apr-14 12:50 UTC. Time now 2018-Jun-24 22:27 UTC.
Position N 58°18' W 136°17'.
Warning: this ship's position is months out of date.

Length 17 m.

Type: Fishing. MMSI: 366998350.

Date/timePositionNaut miles runAvg speedWind from/ knotsBaromVisibWave heightAir tempDewpointWater temp
2018-Apr-14 12:50N 58°18' W 136°17'310.2
2018-Apr-14 12:30N 58°19' W 136°10'611.7
2018-Apr-14 12:00N 58°20' W 135°59'5 9.7
2018-Apr-14 11:30N 58°19' W 135°50'5 9.2
2018-Apr-14 11:00N 58°17' W 135°42'5 8.7
2018-Apr-14 10:24N 58°14' W 135°34'  
2018-Apr-09 07:03N 54°35' W 130°44'1 8.3
2018-Apr-09 06:59N 54°35' W 130°44'5 8.5
2018-Apr-09 06:25N 54°30' W 130°41'4 8.8
2018-Apr-09 06:00N 54°26' W 130°39'4 8.8
2018-Apr-09 05:30N 54°22' W 130°37'5 9.6
2018-Apr-09 05:00N 54°18' W 130°34'5 9.1
2018-Apr-09 04:31N 54°14' W 130°31'5 9.1
2018-Apr-09 04:00N 54°10' W 130°27'5 9.2
2018-Apr-09 03:30N 54°06' W 130°22'5 9.3
2018-Apr-09 03:00N 54°03' W 130°16'5 9.5
2018-Apr-09 02:31N 53°59' W 130°13'4 8.8
2018-Apr-09 02:00N 53°55' W 130°10'4 8.9
2018-Apr-09 01:31N 53°52' W 130°04'5 9.1
2018-Apr-09 00:59N 53°49' W 129°59'97 7.7
2018-Apr-08 12:25N 52°29' W 128°27'3 8.5
2018-Apr-08 12:00N 52°26' W 128°28'4 8.2
2018-Apr-08 11:30N 52°22' W 128°32'5 9.0
2018-Apr-08 10:59N 52°18' W 128°29'5 9.5
2018-Apr-08 10:25N 52°15' W 128°22'4 9.5
2018-Apr-08 10:00N 52°14' W 128°15'5 9.1
2018-Apr-08 09:30N 52°13' W 128°08'3 6.9
2018-Apr-08 09:01N 52°09' W 128°08'4 8.7
2018-Apr-08 08:30N 52°05' W 128°06'4 8.9
2018-Apr-08 08:00N 52°05' W 127°59'4 7.2
2018-Apr-08 07:30N 52°02' W 127°56'4 8.1
2018-Apr-08 07:00N 51°58' W 127°56'4 8.2
2018-Apr-08 06:30N 51°54' W 127°56'4 8.6
2018-Apr-08 06:00N 51°49' W 127°57'4 8.6
2018-Apr-08 05:30N 51°45' W 127°56'4 8.8
2018-Apr-08 05:00N 51°41' W 127°55'4 8.6
2018-Apr-08 04:31N 51°36' W 127°53'4 8.3
2018-Apr-08 04:00N 51°32' W 127°52'4 8.3
2018-Apr-08 03:30N 51°28' W 127°51'3 6.5
2018-Apr-08 02:59N 51°25' W 127°52'4 8.0
2018-Apr-08 02:28N 51°21' W 127°52'11 8.1
2018-Apr-08 01:03N 51°09' W 127°50'1 8.1
2018-Apr-08 00:57N 51°08' W 127°50'4 8.1
2018-Apr-08 00:30N 51°05' W 127°48'4 8.0
2018-Apr-08 00:00N 51°01' W 127°46'4 7.4
2018-Apr-07 23:30N 50°58' W 127°44'4 7.8
2018-Apr-07 23:00N 50°55' W 127°40'4 7.8
2018-Apr-07 22:30N 50°52' W 127°36'3 6.7
2018-Apr-07 22:00N 50°49' W 127°35'4 8.3
2018-Apr-07 21:30N 50°47' W 127°28'4 8.2
2018-Apr-07 20:59N 50°45' W 127°23'5 8.9
2018-Apr-07 20:27N 50°42' W 127°17'610.0
2018-Apr-07 19:52N 50°38' W 127°10'4 9.9
2018-Apr-07 19:26N 50°37' W 127°04'510.2
2018-Apr-07 18:58N 50°35' W 126°57'610.0
2018-Apr-07 18:21N 50°33' W 126°48'53 9.1
2018-Apr-07 12:30N 50°20' W 125°26'5 9.2
2018-Apr-07 11:59N 50°16' W 125°24'5 9.6
2018-Apr-07 11:30N 50°11' W 125°22'5 9.4
2018-Apr-07 11:00N 50°07' W 125°19'510.5
2018-Apr-07 10:30N 50°03' W 125°14'510.8
2018-Apr-07 10:00N 49°58' W 125°10'5 9.4
2018-Apr-07 09:30N 49°55' W 125°04'4 8.9
2018-Apr-07 09:00N 49°52' W 124°59'4 9.0
2018-Apr-07 08:30N 49°49' W 124°55'5 9.1
2018-Apr-07 08:00N 49°45' W 124°50'5 8.7
2018-Apr-07 07:28N 49°42' W 124°45'4 8.9
2018-Apr-07 07:00N 49°39' W 124°41'5 8.6
2018-Apr-07 06:23N 49°35' W 124°35'40 8.8
2018-Apr-07 01:48N 49°15' W 123°41'3 9.0
2018-Apr-07 01:25N 49°14' W 123°36'4 8.9
2018-Apr-07 00:59N 49°12' W 123°31'4 8.6
2018-Apr-07 00:29N 49°09' W 123°27'5 8.0
2018-Apr-06 23:49N 49°05' W 123°21'5 8.9
2018-Apr-06 23:15N 49°01' W 123°16'3 8.3
2018-Apr-06 22:51N 48°59' W 123°12'3 7.9
2018-Apr-06 22:29N 48°57' W 123°08'24 8.0
2018-Apr-06 19:30N 48°41' W 122°42'4 8.2
2018-Apr-06 18:59N 48°38' W 122°37'3 6.8
2018-Apr-06 18:29N 48°41' W 122°34'3 0.2
2018-Apr-06 03:01N 48°44' W 122°32'2 8.4
2018-Apr-06 02:49N 48°42' W 122°33'3 8.6
2018-Apr-06 02:30N 48°39' W 122°34'5 9.0
2018-Apr-06 01:55N 48°36' W 122°39'410.7
2018-Apr-06 01:30N 48°31' W 122°42'35 8.1
2018-Apr-05 21:11N 47°57' W 122°32'210.3
2018-Apr-05 21:00N 47°56' W 122°30'5 9.4
2018-Apr-05 20:30N 47°52' W 122°28'5 9.3
2018-Apr-05 20:00N 47°47' W 122°26'4 8.9
2018-Apr-05 19:30N 47°43' W 122°26'3 6.2
2018-Apr-05 19:00N 47°40' W 122°24'1 2.0
2018-Apr-05 18:30N 47°39' W 122°23'0 0.0
2018-Apr-05 18:00N 47°39' W 122°23'0 0.0
2018-Apr-05 17:30N 47°39' W 122°23'  
Track history (hours):
 
Tides and Currents Weather Stations Pressure Air Temp Water Temp Dewpoint Dewpoint Depression Visibility Wind Speed Wind Dir Waves Ship Positions

Lorelei II

Owner: OLSEN, ERIC W, SEATTLE, WA. More information available from US FCC via Universal Licensing System and Coast Guard Vessel Documentation Center.

Last reported at 2018-Apr-14 12:50 UTC. Time now 2018-Jun-24 22:27 UTC.
Position N 58°18' W 136°17'.
Warning: this ship's position is months out of date.

Length 17 m.

Type: Fishing. MMSI: 366998350.

Date/timePositionNaut miles runAvg speedWind from/ knotsBaromVisibWave heightAir tempDewpointWater temp
2018-Apr-14 12:50N 58°18' W 136°17'310.2
2018-Apr-14 12:30N 58°19' W 136°10'611.7
2018-Apr-14 12:00N 58°20' W 135°59'5 9.7
2018-Apr-14 11:30N 58°19' W 135°50'5 9.2
2018-Apr-14 11:00N 58°17' W 135°42'5 8.7
2018-Apr-14 10:24N 58°14' W 135°34'  
2018-Apr-09 07:03N 54°35' W 130°44'1 8.3
2018-Apr-09 06:59N 54°35' W 130°44'5 8.5
2018-Apr-09 06:25N 54°30' W 130°41'4 8.8
2018-Apr-09 06:00N 54°26' W 130°39'4 8.8
2018-Apr-09 05:30N 54°22' W 130°37'5 9.6
2018-Apr-09 05:00N 54°18' W 130°34'5 9.1
2018-Apr-09 04:31N 54°14' W 130°31'5 9.1
2018-Apr-09 04:00N 54°10' W 130°27'5 9.2
2018-Apr-09 03:30N 54°06' W 130°22'5 9.3
2018-Apr-09 03:00N 54°03' W 130°16'5 9.5
2018-Apr-09 02:31N 53°59' W 130°13'4 8.8
2018-Apr-09 02:00N 53°55' W 130°10'4 8.9
2018-Apr-09 01:31N 53°52' W 130°04'5 9.1
2018-Apr-09 00:59N 53°49' W 129°59'97 7.7
2018-Apr-08 12:25N 52°29' W 128°27'3 8.5
2018-Apr-08 12:00N 52°26' W 128°28'4 8.2
2018-Apr-08 11:30N 52°22' W 128°32'5 9.0
2018-Apr-08 10:59N 52°18' W 128°29'5 9.5
2018-Apr-08 10:25N 52°15' W 128°22'4 9.5
2018-Apr-08 10:00N 52°14' W 128°15'5 9.1
2018-Apr-08 09:30N 52°13' W 128°08'3 6.9
2018-Apr-08 09:01N 52°09' W 128°08'4 8.7
2018-Apr-08 08:30N 52°05' W 128°06'4 8.9
2018-Apr-08 08:00N 52°05' W 127°59'4 7.2
2018-Apr-08 07:30N 52°02' W 127°56'4 8.1
2018-Apr-08 07:00N 51°58' W 127°56'4 8.2
2018-Apr-08 06:30N 51°54' W 127°56'4 8.6
2018-Apr-08 06:00N 51°49' W 127°57'4 8.6
2018-Apr-08 05:30N 51°45' W 127°56'4 8.8
2018-Apr-08 05:00N 51°41' W 127°55'4 8.6
2018-Apr-08 04:31N 51°36' W 127°53'4 8.3
2018-Apr-08 04:00N 51°32' W 127°52'4 8.3
2018-Apr-08 03:30N 51°28' W 127°51'3 6.5
2018-Apr-08 02:59N 51°25' W 127°52'4 8.0
2018-Apr-08 02:28N 51°21' W 127°52'11 8.1
2018-Apr-08 01:03N 51°09' W 127°50'1 8.1
2018-Apr-08 00:57N 51°08' W 127°50'4 8.1
2018-Apr-08 00:30N 51°05' W 127°48'4 8.0
2018-Apr-08 00:00N 51°01' W 127°46'4 7.4
2018-Apr-07 23:30N 50°58' W 127°44'4 7.8
2018-Apr-07 23:00N 50°55' W 127°40'4 7.8
2018-Apr-07 22:30N 50°52' W 127°36'3 6.7
2018-Apr-07 22:00N 50°49' W 127°35'4 8.3
2018-Apr-07 21:30N 50°47' W 127°28'4 8.2
2018-Apr-07 20:59N 50°45' W 127°23'5 8.9
2018-Apr-07 20:27N 50°42' W 127°17'610.0
2018-Apr-07 19:52N 50°38' W 127°10'4 9.9
2018-Apr-07 19:26N 50°37' W 127°04'510.2
2018-Apr-07 18:58N 50°35' W 126°57'610.0
2018-Apr-07 18:21N 50°33' W 126°48'53 9.1
2018-Apr-07 12:30N 50°20' W 125°26'5 9.2
2018-Apr-07 11:59N 50°16' W 125°24'5 9.6
2018-Apr-07 11:30N 50°11' W 125°22'5 9.4
2018-Apr-07 11:00N 50°07' W 125°19'510.5
2018-Apr-07 10:30N 50°03' W 125°14'510.8
2018-Apr-07 10:00N 49°58' W 125°10'5 9.4
2018-Apr-07 09:30N 49°55' W 125°04'4 8.9
2018-Apr-07 09:00N 49°52' W 124°59'4 9.0
2018-Apr-07 08:30N 49°49' W 124°55'5 9.1
2018-Apr-07 08:00N 49°45' W 124°50'5 8.7
2018-Apr-07 07:28N 49°42' W 124°45'4 8.9
2018-Apr-07 07:00N 49°39' W 124°41'5 8.6
2018-Apr-07 06:23N 49°35' W 124°35'40 8.8
2018-Apr-07 01:48N 49°15' W 123°41'3 9.0
2018-Apr-07 01:25N 49°14' W 123°36'4 8.9
2018-Apr-07 00:59N 49°12' W 123°31'4 8.6
2018-Apr-07 00:29N 49°09' W 123°27'5 8.0
2018-Apr-06 23:49N 49°05' W 123°21'5 8.9
2018-Apr-06 23:15N 49°01' W 123°16'3 8.3
2018-Apr-06 22:51N 48°59' W 123°12'3 7.9
2018-Apr-06 22:29N 48°57' W 123°08'24 8.0
2018-Apr-06 19:30N 48°41' W 122°42'4 8.2
2018-Apr-06 18:59N 48°38' W 122°37'3 6.8
2018-Apr-06 18:29N 48°41' W 122°34'3 0.2
2018-Apr-06 03:01N 48°44' W 122°32'2 8.4
2018-Apr-06 02:49N 48°42' W 122°33'3 8.6
2018-Apr-06 02:30N 48°39' W 122°34'5 9.0
2018-Apr-06 01:55N 48°36' W 122°39'410.7
2018-Apr-06 01:30N 48°31' W 122°42'35 8.1
2018-Apr-05 21:11N 47°57' W 122°32'210.3
2018-Apr-05 21:00N 47°56' W 122°30'5 9.4
2018-Apr-05 20:30N 47°52' W 122°28'5 9.3
2018-Apr-05 20:00N 47°47' W 122°26'4 8.9
2018-Apr-05 19:30N 47°43' W 122°26'3 6.2
2018-Apr-05 19:00N 47°40' W 122°24'1 2.0
2018-Apr-05 18:30N 47°39' W 122°23'0 0.0
2018-Apr-05 18:00N 47°39' W 122°23'0 0.0
2018-Apr-05 17:30N 47°39' W 122°23'  

Dump ship's entire track history